createdAt,value
2023-02-28T00:02:04.820Z,99.50
2023-02-28T00:04:53.926Z,99.60
2023-02-28T00:07:39.690Z,99.70
2023-02-28T00:10:27.953Z,99.80
2023-02-28T00:13:14.174Z,99.90
2023-02-28T00:15:59.969Z,99.90
2023-02-28T00:18:45.499Z,99.90
2023-02-28T00:21:31.446Z,99.90
2023-02-28T00:24:17.227Z,99.90
2023-02-28T00:27:04.131Z,99.90
2023-02-28T00:29:49.877Z,99.90
2023-02-28T00:32:35.566Z,99.90
2023-02-28T00:35:21.050Z,99.90
2023-02-28T00:38:06.680Z,99.90
2023-02-28T00:40:54.396Z,99.90
2023-02-28T00:43:41.475Z,99.90
2023-02-28T00:46:27.126Z,99.90
2023-02-28T00:49:12.634Z,99.90
2023-02-28T00:51:58.152Z,99.90
2023-02-28T00:54:45.411Z,99.90
2023-02-28T00:57:30.732Z,99.90
2023-02-28T01:00:18.014Z,99.90
2023-02-28T01:03:03.507Z,99.90
2023-02-28T01:05:49.097Z,99.80
2023-02-28T01:08:36.194Z,99.40
2023-02-28T01:11:21.908Z,99.00
2023-02-28T01:14:07.658Z,99.00
2023-02-28T01:16:54.622Z,99.20
2023-02-28T01:19:40.132Z,99.20
2023-02-28T01:22:25.766Z,99.40
2023-02-28T01:25:11.213Z,99.40
2023-02-28T01:27:57.011Z,99.50
2023-02-28T01:30:42.596Z,99.60
2023-02-28T01:33:29.886Z,99.70
2023-02-28T01:36:16.483Z,99.60
2023-02-28T01:39:02.052Z,99.60
2023-02-28T01:41:47.667Z,99.60
2023-02-28T01:44:51.839Z,99.80
2023-02-28T01:47:39.501Z,99.80
2023-02-28T01:50:28.179Z,99.90
2023-02-28T01:53:15.300Z,99.90
2023-02-28T01:56:01.016Z,99.90
2023-02-28T01:58:46.706Z,99.90
2023-02-28T02:01:32.604Z,99.90
2023-02-28T02:04:21.500Z,99.90
2023-02-28T02:07:08.970Z,99.90
2023-02-28T02:10:01.016Z,99.90
2023-02-28T02:12:57.080Z,99.80
2023-02-28T02:15:47.247Z,99.90
2023-02-28T02:18:35.941Z,99.90
2023-02-28T02:21:30.130Z,99.90
2023-02-28T02:24:30.620Z,99.90
2023-02-28T02:27:26.010Z,99.90
2023-02-28T02:30:28.757Z,99.90
2023-02-28T02:33:27.189Z,99.90
2023-02-28T02:36:15.164Z,99.90
2023-02-28T02:39:03.039Z,99.70
2023-02-28T02:41:50.499Z,99.60
2023-02-28T02:44:40.054Z,99.70
2023-02-28T02:47:28.027Z,99.70
2023-02-28T02:50:15.050Z,99.70
2023-02-28T02:53:02.977Z,99.70
2023-02-28T02:55:55.224Z,99.80
2023-02-28T02:58:43.365Z,99.70
2023-02-28T03:01:30.183Z,99.80
2023-02-28T03:04:20.563Z,99.80
2023-02-28T03:07:06.009Z,99.80
2023-02-28T03:09:53.967Z,99.80
2023-02-28T03:12:42.361Z,99.70
2023-02-28T03:15:29.045Z,99.70
2023-02-28T03:18:18.038Z,99.60
2023-02-28T03:21:07.611Z,99.60
2023-02-28T03:24:00.737Z,99.40
2023-02-28T03:26:51.421Z,99.40
2023-02-28T03:29:39.468Z,99.50
2023-02-28T03:32:26.958Z,99.50
2023-02-28T03:35:14.995Z,99.50
2023-02-28T03:38:04.407Z,99.50
2023-02-28T03:40:54.635Z,99.60
2023-02-28T03:43:43.045Z,99.50
2023-02-28T03:46:32.194Z,99.50
2023-02-28T03:49:19.039Z,99.50
2023-02-28T03:52:07.175Z,98.90
2023-02-28T03:54:54.434Z,99.40
2023-02-28T03:57:44.472Z,99.10
2023-02-28T04:00:33.824Z,98.70
2023-02-28T04:03:19.691Z,99.90
2023-02-28T04:06:05.791Z,99.90
2023-02-28T04:08:51.469Z,99.90
2023-02-28T04:11:37.751Z,99.90
2023-02-28T04:14:23.134Z,99.90
2023-02-28T04:17:09.936Z,99.90
2023-02-28T04:19:57.632Z,98.50
2023-02-28T04:22:43.238Z,98.50
2023-02-28T04:25:28.641Z,98.60
2023-02-28T04:28:13.948Z,99.10
2023-02-28T04:30:59.945Z,99.20
2023-02-28T04:33:47.178Z,99.20
2023-02-28T04:36:32.621Z,98.80
2023-02-28T04:39:19.374Z,98.80
2023-02-28T04:42:05.098Z,98.40
2023-02-28T04:44:50.366Z,98.20
2023-02-28T04:47:35.939Z,98.30
2023-02-28T04:50:22.652Z,98.50
2023-02-28T04:53:08.201Z,98.40
2023-02-28T04:55:53.332Z,98.80
2023-02-28T04:58:38.493Z,98.40
2023-02-28T05:01:25.244Z,98.10
2023-02-28T05:04:10.540Z,97.90
2023-02-28T05:06:57.858Z,97.70
2023-02-28T05:09:43.460Z,97.60
2023-02-28T05:12:29.190Z,97.50
2023-02-28T05:15:15.139Z,97.40
2023-02-28T05:18:00.666Z,97.50
2023-02-28T05:20:46.805Z,97.30
2023-02-28T05:23:33.689Z,97.30
2023-02-28T05:26:19.146Z,97.20
2023-02-28T05:29:04.733Z,97.40
2023-02-28T05:31:50.426Z,97.50
2023-02-28T05:34:35.671Z,97.60
2023-02-28T05:37:22.764Z,97.50
2023-02-28T05:40:13.537Z,97.50
2023-02-28T05:42:58.793Z,97.40
2023-02-28T05:45:44.143Z,97.40
2023-02-28T05:48:29.489Z,97.40
2023-02-28T05:51:15.422Z,97.50
2023-02-28T05:54:03.467Z,97.50
2023-02-28T05:56:50.396Z,97.80
2023-02-28T05:59:36.037Z,97.90
2023-02-28T06:02:21.779Z,97.90
2023-02-28T06:05:09.456Z,97.80
2023-02-28T06:07:55.012Z,97.90
2023-02-28T06:10:40.572Z,97.50
2023-02-28T06:13:27.546Z,97.50
2023-02-28T06:16:12.904Z,97.80
2023-02-28T06:18:59.334Z,97.60
2023-02-28T06:21:45.029Z,97.50
2023-02-28T06:24:31.374Z,97.80
2023-02-28T06:27:16.954Z,97.80
2023-02-28T06:30:04.429Z,97.60
2023-02-28T06:32:50.537Z,97.60
2023-02-28T06:35:36.143Z,97.40
2023-02-28T06:38:22.209Z,97.40
2023-02-28T06:41:07.751Z,97.50
2023-02-28T06:43:53.706Z,97.50
2023-02-28T06:46:41.527Z,97.70
2023-02-28T06:49:26.957Z,97.80
2023-02-28T06:52:14.247Z,97.80
2023-02-28T06:55:02.894Z,97.80
2023-02-28T06:57:48.767Z,97.80
2023-02-28T07:00:34.631Z,97.90
2023-02-28T07:03:21.965Z,98.00
2023-02-28T07:06:07.815Z,98.00
2023-02-28T07:08:54.001Z,97.80
2023-02-28T07:11:39.622Z,97.30
2023-02-28T07:14:25.140Z,97.40
2023-02-28T07:17:12.844Z,97.10
2023-02-28T07:19:59.985Z,96.90
2023-02-28T07:22:45.335Z,96.80
2023-02-28T07:25:30.931Z,96.90
2023-02-28T07:28:16.463Z,96.60
2023-02-28T07:31:05.993Z,96.40
2023-02-28T07:33:51.347Z,96.00
2023-02-28T07:36:38.316Z,95.90
2023-02-28T07:39:23.870Z,95.70
2023-02-28T07:42:12.205Z,95.40
2023-02-28T07:44:59.878Z,95.30
2023-02-28T07:47:45.259Z,95.90
2023-02-28T07:50:31.919Z,96.10
2023-02-28T07:53:18.796Z,97.00
2023-02-28T07:56:04.678Z,96.30
2023-02-28T07:58:50.375Z,96.80
2023-02-28T08:01:36.325Z,96.20
2023-02-28T08:04:21.810Z,95.10
2023-02-28T08:07:07.670Z,95.10
2023-02-28T08:09:54.549Z,94.70
2023-02-28T08:12:40.105Z,93.00
2023-02-28T08:15:25.767Z,92.50
2023-02-28T08:18:11.453Z,90.30
2023-02-28T08:20:58.487Z,88.70
2023-02-28T08:23:44.127Z,88.90
2023-02-28T08:26:31.077Z,87.60
2023-02-28T08:29:16.660Z,83.70
2023-02-28T08:32:02.224Z,78.40
2023-02-28T08:34:48.148Z,77.20
2023-02-28T08:37:33.711Z,74.80
2023-02-28T08:40:19.856Z,78.00
2023-02-28T08:43:06.985Z,77.40
2023-02-28T08:45:53.060Z,78.00
2023-02-28T08:48:38.959Z,78.10
2023-02-28T08:51:27.720Z,74.80
2023-02-28T08:54:13.898Z,75.80
2023-02-28T08:56:59.379Z,74.60
2023-02-28T08:59:46.401Z,76.40
2023-02-28T09:02:32.406Z,76.00
2023-02-28T09:05:17.878Z,74.50
2023-02-28T09:08:03.715Z,74.70
2023-02-28T09:10:49.464Z,74.20
2023-02-28T09:13:35.447Z,75.00
2023-02-28T09:16:22.897Z,70.70
2023-02-28T09:19:11.281Z,68.50
2023-02-28T09:21:56.826Z,66.40
2023-02-28T09:24:42.639Z,65.40
2023-02-28T09:27:28.130Z,63.90
2023-02-28T09:30:14.336Z,64.20
2023-02-28T09:33:01.126Z,63.20
2023-02-28T09:35:46.667Z,62.20
2023-02-28T09:38:32.605Z,62.20
2023-02-28T09:41:19.736Z,59.40
2023-02-28T09:44:05.909Z,59.10
2023-02-28T09:46:54.906Z,59.20
2023-02-28T09:49:43.886Z,58.80
2023-02-28T09:52:31.501Z,58.90
2023-02-28T09:55:20.902Z,59.20
2023-02-28T09:58:10.951Z,59.40
2023-02-28T10:00:59.810Z,59.10
2023-02-28T10:03:48.094Z,57.90
2023-02-28T10:06:37.816Z,55.10
2023-02-28T10:09:25.413Z,53.70
2023-02-28T10:12:12.676Z,53.80
2023-02-28T10:14:59.816Z,53.60
2023-02-28T10:17:55.344Z,54.90
2023-02-28T10:20:42.279Z,54.30
2023-02-28T10:23:32.537Z,54.70
2023-02-28T10:26:18.647Z,53.10
2023-02-28T10:29:04.311Z,52.50
2023-02-28T10:31:49.895Z,53.60
2023-02-28T10:34:35.380Z,54.00
2023-02-28T10:37:20.907Z,53.70
2023-02-28T10:40:25.525Z,53.60
2023-02-28T10:43:19.697Z,53.80
2023-02-28T10:46:10.436Z,53.60
2023-02-28T10:49:02.203Z,53.40
2023-02-28T10:51:50.153Z,54.10
2023-02-28T10:54:37.033Z,54.10
2023-02-28T10:57:27.440Z,53.50
2023-02-28T11:00:15.419Z,53.20
2023-02-28T11:03:01.241Z,52.90
2023-02-28T11:05:47.200Z,52.20
2023-02-28T11:08:32.955Z,53.10
2023-02-28T11:11:21.080Z,55.50
2023-02-28T11:14:17.190Z,52.80
2023-02-28T11:17:12.417Z,52.40
2023-02-28T11:19:59.601Z,52.00
2023-02-28T11:22:47.247Z,51.10
2023-02-28T11:25:34.629Z,52.10
2023-02-28T11:28:27.657Z,52.60
2023-02-28T11:31:20.388Z,52.80
2023-02-28T11:34:23.120Z,54.00
2023-02-28T11:37:12.492Z,52.60
2023-02-28T11:39:58.232Z,53.10
2023-02-28T11:42:53.462Z,53.70
2023-02-28T11:45:44.859Z,54.10
2023-02-28T11:48:35.714Z,54.50
2023-02-28T11:51:23.314Z,55.10
2023-02-28T11:54:20.332Z,53.80
2023-02-28T11:57:15.474Z,53.30
2023-02-28T12:00:04.251Z,53.60
2023-02-28T12:03:01.690Z,54.00
2023-02-28T12:05:55.848Z,54.00
2023-02-28T12:08:48.159Z,54.50
2023-02-28T12:11:39.347Z,54.50
2023-02-28T12:14:51.944Z,54.30
2023-02-28T12:17:44.350Z,54.30
2023-02-28T12:20:34.828Z,53.80
2023-02-28T12:23:27.025Z,52.40
2023-02-28T12:26:15.927Z,53.60
2023-02-28T12:29:04.267Z,51.80
2023-02-28T12:31:50.734Z,52.20
2023-02-28T12:34:38.376Z,52.30
2023-02-28T12:37:28.484Z,52.10
2023-02-28T12:40:16.940Z,52.90
2023-02-28T12:43:04.525Z,52.90
2023-02-28T12:45:52.052Z,52.60
2023-02-28T12:48:41.102Z,52.30
2023-02-28T12:51:27.964Z,53.80
2023-02-28T12:54:17.828Z,53.20
2023-02-28T12:57:09.122Z,53.70
2023-02-28T12:59:56.928Z,54.00
2023-02-28T13:02:54.883Z,53.70
2023-02-28T13:05:47.623Z,53.60
2023-02-28T13:08:41.866Z,53.40
2023-02-28T13:11:30.375Z,53.60
2023-02-28T13:14:20.795Z,54.10
2023-02-28T13:17:15.217Z,54.10
2023-02-28T13:20:00.838Z,53.50
2023-02-28T13:22:48.032Z,53.20
2023-02-28T13:25:52.475Z,54.10
2023-02-28T13:29:07.565Z,53.20
2023-02-28T13:32:11.877Z,54.90
2023-02-28T13:35:35.270Z,56.50
2023-02-28T13:38:38.976Z,56.20
2023-02-28T13:41:47.398Z,56.80
2023-02-28T13:44:54.706Z,56.40
2023-02-28T13:47:41.249Z,56.20
2023-02-28T13:50:32.833Z,56.00
2023-02-28T13:53:40.805Z,56.50
2023-02-28T13:56:35.268Z,58.30
2023-02-28T13:59:24.505Z,57.20
2023-02-28T14:02:26.284Z,58.40
2023-02-28T14:08:06.851Z,58.30
2023-02-28T14:11:03.485Z,57.50
2023-02-28T14:13:49.786Z,57.10
2023-02-28T14:16:40.900Z,58.30
2023-02-28T14:19:27.575Z,59.90
2023-02-28T14:22:18.221Z,58.40
2023-02-28T14:25:12.898Z,58.80
2023-02-28T14:28:03.652Z,60.20
2023-02-28T14:31:01.420Z,59.20
2023-02-28T14:33:59.934Z,60.50
2023-02-28T14:36:46.132Z,59.10
2023-02-28T14:39:32.184Z,58.40
2023-02-28T14:42:32.309Z,58.80
2023-02-28T14:45:23.293Z,59.20
2023-02-28T14:48:11.959Z,59.30
2023-02-28T14:50:58.320Z,59.40
2023-02-28T14:53:49.732Z,59.80
2023-02-28T14:56:36.655Z,60.40
2023-02-28T14:59:26.710Z,59.00
2023-02-28T15:02:17.316Z,60.50
2023-02-28T15:05:18.569Z,58.50
2023-02-28T15:08:13.538Z,59.30
2023-02-28T15:11:01.446Z,60.70
2023-02-28T15:13:47.530Z,62.20
2023-02-28T15:16:36.065Z,62.10
2023-02-28T15:19:24.133Z,62.10
2023-02-28T15:22:27.476Z,62.90
2023-02-28T15:25:14.448Z,61.20
2023-02-28T15:28:00.139Z,60.30
2023-02-28T15:30:56.693Z,59.90
2023-02-28T15:33:52.675Z,59.50
2023-02-28T15:36:38.539Z,58.90
2023-02-28T15:39:25.703Z,60.30
2023-02-28T15:42:11.776Z,61.90
2023-02-28T15:44:58.357Z,61.50
2023-02-28T15:47:46.646Z,62.60
2023-02-28T15:50:33.672Z,61.10
2023-02-28T15:53:20.148Z,62.00
2023-02-28T15:56:07.618Z,62.50
2023-02-28T15:58:55.241Z,63.10
2023-02-28T16:01:40.817Z,63.70
2023-02-28T16:04:31.338Z,64.80
2023-02-28T16:07:18.371Z,63.90
2023-02-28T16:10:08.030Z,62.80
2023-02-28T16:12:54.229Z,62.80
2023-02-28T16:15:43.449Z,64.30
2023-02-28T16:18:29.309Z,62.90
2023-02-28T16:21:15.005Z,64.30
2023-02-28T16:24:01.808Z,64.40
2023-02-28T16:26:49.493Z,64.90
2023-02-28T16:29:36.571Z,64.20
2023-02-28T16:32:22.504Z,63.40
2023-02-28T16:35:10.705Z,63.50
2023-02-28T16:37:56.625Z,65.10
2023-02-28T16:40:44.065Z,66.30
2023-02-28T16:43:30.428Z,66.40
2023-02-28T16:46:17.767Z,66.20
2023-02-28T16:49:03.501Z,65.20
2023-02-28T16:51:49.193Z,64.80
2023-02-28T16:54:34.651Z,65.50
2023-02-28T16:57:22.841Z,64.90
2023-02-28T17:00:14.214Z,66.50
2023-02-28T17:03:00.525Z,66.90
2023-02-28T17:05:47.078Z,66.70
2023-02-28T17:08:33.266Z,67.30
2023-02-28T17:11:19.752Z,66.70
2023-02-28T17:14:06.527Z,66.90
2023-02-28T17:16:52.038Z,67.70
2023-02-28T17:19:39.221Z,65.90
2023-02-28T17:22:26.853Z,66.50
2023-02-28T17:25:12.707Z,67.10
2023-02-28T17:27:58.297Z,66.40
2023-02-28T17:30:48.123Z,65.20
2023-02-28T17:33:33.513Z,65.30
2023-02-28T17:36:25.650Z,65.50
2023-02-28T17:39:12.125Z,65.30
2023-02-28T17:41:57.530Z,64.70
2023-02-28T17:44:43.507Z,65.30
2023-02-28T17:47:30.329Z,65.50
2023-02-28T17:50:16.991Z,65.80
2023-02-28T17:53:02.600Z,66.30
2023-02-28T17:55:49.841Z,66.10
2023-02-28T17:58:35.313Z,65.30
2023-02-28T18:01:21.258Z,65.10
2023-02-28T18:04:08.046Z,65.10
2023-02-28T18:06:53.915Z,65.40
2023-02-28T18:09:39.736Z,66.70
2023-02-28T18:12:25.111Z,66.70
2023-02-28T18:15:10.847Z,67.80
2023-02-28T18:17:56.411Z,68.20
2023-02-28T18:20:43.471Z,67.90
2023-02-28T18:23:29.052Z,67.50
2023-02-28T18:26:14.915Z,66.70
2023-02-28T18:29:00.795Z,66.30
2023-02-28T18:31:46.237Z,65.90
2023-02-28T18:34:31.821Z,66.10
2023-02-28T18:37:19.144Z,66.10
2023-02-28T18:40:06.531Z,66.30
2023-02-28T18:42:52.207Z,66.80
2023-02-28T18:45:39.823Z,67.40
2023-02-28T18:48:25.306Z,67.70
2023-02-28T18:51:11.796Z,68.00
2023-02-28T18:53:58.938Z,67.80
2023-02-28T18:56:45.625Z,67.80
2023-02-28T18:59:31.415Z,68.30
2023-02-28T19:02:17.480Z,68.90
2023-02-28T19:05:02.909Z,68.60
2023-02-28T19:07:48.421Z,68.90
2023-02-28T19:10:38.269Z,69.10
2023-02-28T19:13:24.100Z,69.60
2023-02-28T19:16:11.042Z,70.00
2023-02-28T19:18:57.717Z,69.60
2023-02-28T19:21:43.523Z,70.30
2023-02-28T19:24:28.870Z,70.90
2023-02-28T19:27:17.266Z,71.70
2023-02-28T19:30:04.604Z,72.20
2023-02-28T19:32:50.679Z,73.00
2023-02-28T19:35:36.766Z,73.60
2023-02-28T19:38:22.407Z,74.10
2023-02-28T19:41:08.943Z,74.50
2023-02-28T19:43:55.604Z,75.20
2023-02-28T19:46:41.054Z,75.90
2023-02-28T19:49:26.910Z,76.50
2023-02-28T19:52:15.067Z,76.90
2023-02-28T19:55:00.913Z,77.10
2023-02-28T19:57:46.562Z,77.50
2023-02-28T20:00:33.314Z,77.50
2023-02-28T20:03:18.897Z,77.80
2023-02-28T20:06:07.299Z,78.10
2023-02-28T20:08:54.178Z,78.20
2023-02-28T20:11:39.984Z,78.50
2023-02-28T20:14:25.950Z,79.10
2023-02-28T20:17:12.831Z,79.50
2023-02-28T20:19:58.404Z,79.70
2023-02-28T20:22:43.835Z,80.00
2023-02-28T20:25:29.615Z,80.40
2023-02-28T20:28:15.286Z,80.70
2023-02-28T20:31:01.666Z,81.20
2023-02-28T20:33:49.207Z,81.50
2023-02-28T20:36:34.781Z,81.60
2023-02-28T20:39:20.280Z,81.90
2023-02-28T20:42:06.127Z,82.10
2023-02-28T20:44:51.744Z,82.10
2023-02-28T20:47:37.403Z,82.60
2023-02-28T20:50:24.587Z,84.20
2023-02-28T20:53:10.254Z,84.10
2023-02-28T20:55:56.094Z,83.90
2023-02-28T20:58:41.843Z,84.30
2023-02-28T21:01:29.217Z,84.40
2023-02-28T21:04:14.890Z,84.70
2023-02-28T21:07:01.917Z,84.70
2023-02-28T21:09:47.655Z,84.90
2023-02-28T21:12:32.969Z,85.20
2023-02-28T21:15:18.702Z,85.30
2023-02-28T21:18:04.336Z,85.50
2023-02-28T21:20:49.923Z,85.60
2023-02-28T21:23:37.139Z,85.90
2023-02-28T21:26:23.367Z,86.00
2023-02-28T21:29:17.845Z,86.30
2023-02-28T21:32:03.456Z,86.80
2023-02-28T21:34:50.050Z,86.90
2023-02-28T21:37:37.235Z,87.30
2023-02-28T21:40:24.391Z,87.20
2023-02-28T21:43:09.875Z,87.70
2023-02-28T21:45:55.679Z,87.60
2023-02-28T21:48:41.752Z,88.00
2023-02-28T21:51:27.670Z,88.40
2023-02-28T21:54:13.918Z,88.70
2023-02-28T21:57:03.474Z,88.80
2023-02-28T21:59:49.603Z,89.70
2023-02-28T22:02:37.045Z,89.70
2023-02-28T22:05:22.911Z,89.80
2023-02-28T22:08:08.460Z,90.00
2023-02-28T22:10:54.055Z,90.00
2023-02-28T22:13:40.922Z,90.10
2023-02-28T22:16:28.213Z,90.10
2023-02-28T22:19:15.067Z,90.30
2023-02-28T22:22:00.667Z,90.50
2023-02-28T22:24:45.903Z,90.60
2023-02-28T22:27:31.610Z,90.70
2023-02-28T22:30:18.959Z,90.80
2023-02-28T22:33:04.807Z,90.80
2023-02-28T22:35:50.440Z,91.30
2023-02-28T22:38:36.006Z,91.10
2023-02-28T22:41:22.409Z,91.20
2023-02-28T22:44:08.373Z,91.30
2023-02-28T22:46:55.258Z,91.30
2023-02-28T22:49:40.727Z,91.40
2023-02-28T22:52:26.332Z,91.60
2023-02-28T22:55:11.984Z,91.60
2023-02-28T22:57:57.507Z,91.70
2023-02-28T23:00:42.811Z,91.80
2023-02-28T23:03:30.664Z,92.00
2023-02-28T23:06:18.079Z,92.00
2023-02-28T23:09:05.143Z,92.00
2023-02-28T23:11:51.517Z,92.10
2023-02-28T23:14:36.939Z,92.20
2023-02-28T23:17:22.277Z,92.20
2023-02-28T23:20:10.702Z,92.30
2023-02-28T23:22:56.533Z,92.40
2023-02-28T23:25:42.440Z,92.50
2023-02-28T23:28:27.914Z,92.60
2023-02-28T23:31:13.927Z,92.60
2023-02-28T23:34:00.656Z,92.60
2023-02-28T23:36:47.710Z,92.80
2023-02-28T23:39:33.284Z,92.80
2023-02-28T23:42:18.627Z,92.90
2023-02-28T23:45:04.532Z,92.80
2023-02-28T23:47:50.149Z,92.90
2023-02-28T23:50:37.393Z,93.00
2023-02-28T23:53:24.793Z,93.10
2023-02-28T23:56:10.873Z,93.10
2023-02-28T23:58:57.027Z,93.20
